Terminal Aerodrome Forecast
Issued by NWS

Home | Current Version | Previous Version | Text Only | Print | Product List | Glossary On
Versions: 1 2 3 4 5 6 7 8 9 10 11 12 13 14 15
840
FTUS45 KABQ 271740
TAFLVS
TAF
KLVS 271740Z 2718/2818 09006KT P6SM VCSH OVC025
     FM271900 11011KT P6SM VCSH OVC035
     FM272100 14012KT P6SM VCTS OVC040CB
      TEMPO 2721/2724 VRB20G30KT 5SM TSRA BR OVC035CB
     FM280000 10009KT P6SM VCSH OVC080
     FM280600 13006KT P6SM BKN100=

USA.gov is the U.S. government's official web portal to all federal, state and local government web resources and services.